Time;durP1;ratioP1;P1;durP2;ratioP2;P2;SDS_P1;SDS_P2;PMS_P1;PMS_P2;Temp;Humidity;BMP_temperature;BMP_pressure;BME280_temperature;BME280_humidity;BME280_pressure;Samples;Min_cycle;Max_cycle;Signal;HPM_P1;HPM_P2
2021/06/21 00:00:38;;;;;;;5.60;2.90;;;24.40;96.70;;;;;;5044318;28;20074;-74
2021/06/21 00:03:08;;;;;;;6.10;3.00;;;24.40;96.70;;;;;;5038494;28;20037;-74
2021/06/21 00:05:37;;;;;;;8.10;3.30;;;24.40;96.70;;;;;;5028402;28;20210;-74
2021/06/21 00:08:07;;;;;;;7.30;3.42;;;24.40;96.70;;;;;;5035443;28;20049;-74
2021/06/21 00:10:39;;;;;;;7.57;3.05;;;24.40;96.70;;;;;;5041917;28;20287;-74
2021/06/21 00:13:09;;;;;;;7.00;2.70;;;24.30;96.70;;;;;;5039842;28;20040;-74
2021/06/21 00:15:41;;;;;;;8.27;3.15;;;24.30;96.70;;;;;;5025653;28;20098;-74
2021/06/21 00:18:14;;;;;;;5.85;2.72;;;24.30;96.70;;;;;;5038750;28;20040;-75
2021/06/21 00:20:46;;;;;;;10.52;3.80;;;24.40;96.70;;;;;;5040908;28;20453;-75
2021/06/21 00:23:16;;;;;;;7.47;2.95;;;24.30;96.70;;;;;;5040643;28;20045;-75
2021/06/21 00:25:47;;;;;;;5.55;3.22;;;24.30;96.70;;;;;;5040373;28;20063;-74
2021/06/21 00:28:18;;;;;;;8.15;3.33;;;24.00;96.70;;;;;;5023972;28;20286;-74
2021/06/21 00:30:49;;;;;;;10.75;3.72;;;24.00;96.70;;;;;;5037311;28;20051;-74
2021/06/21 00:33:19;;;;;;;6.57;3.13;;;23.90;96.70;;;;;;5039602;28;20112;-74
2021/06/21 00:35:48;;;;;;;6.28;3.42;;;24.00;96.70;;;;;;5039466;28;20094;-74
2021/06/21 00:39:09;;;;;;;5.40;3.25;;;24.00;96.70;;;;;;5040973;28;20036;-74
2021/06/21 00:41:38;;;;;;;7.55;3.60;;;23.90;96.70;;;;;;5034809;28;20084;-74
2021/06/21 00:44:08;;;;;;;6.95;3.38;;;23.90;96.70;;;;;;5035377;28;20435;-74
2021/06/21 00:46:40;;;;;;;4.07;3.13;;;23.90;96.70;;;;;;5042433;28;20499;-74
2021/06/21 00:49:10;;;;;;;6.07;3.35;;;23.90;96.70;;;;;;5045016;28;20051;-74
2021/06/21 00:51:41;;;;;;;5.18;2.88;;;23.80;96.70;;;;;;5024256;28;20048;-74
2021/06/21 00:54:11;;;;;;;8.88;3.50;;;23.80;96.70;;;;;;5036652;28;20120;-74
2021/06/21 00:56:40;;;;;;;5.53;3.28;;;23.80;96.70;;;;;;5041627;28;20041;-74
2021/06/21 00:59:11;;;;;;;6.45;3.50;;;23.90;96.70;;;;;;5037968;28;20128;-74
2021/06/21 01:01:42;;;;;;;6.82;3.15;;;24.10;96.70;;;;;;5040277;28;20040;-74
2021/06/21 01:04:12;;;;;;;6.60;3.58;;;24.10;96.70;;;;;;5041022;28;20036;-74
2021/06/21 01:06:42;;;;;;;10.25;3.38;;;24.10;96.70;;;;;;5020980;28;20095;-74
2021/06/21 01:09:12;;;;;;;8.18;3.35;;;24.10;96.70;;;;;;5041755;28;20136;-75
2021/06/21 01:11:53;;;;;;;5.97;3.00;;;24.10;96.70;;;;;;5040524;28;20045;-74
2021/06/21 01:14:29;;;;;;;10.32;3.38;;;24.00;96.70;;;;;;5039237;28;20099;-74
2021/06/21 01:17:13;;;;;;;7.70;3.57;;;24.00;96.70;;;;;;5038081;28;20051;-74
2021/06/21 01:20:14;;;;;;;7.20;3.35;;;24.00;96.70;;;;;;5043994;28;20052;-75
2021/06/21 01:23:25;;;;;;;7.53;3.15;;;24.00;96.70;;;;;;5051766;28;20056;-74
2021/06/21 01:26:11;;;;;;;7.18;2.85;;;24.10;96.70;;;;;;5016705;28;20240;-74
2021/06/21 01:29:04;;;;;;;7.07;2.97;;;24.10;96.70;;;;;;5036716;28;20148;-74
2021/06/21 01:31:50;;;;;;;8.60;2.80;;;24.00;96.70;;;;;;5041650;28;20042;-74
2021/06/21 01:34:27;;;;;;;9.25;3.47;;;24.00;96.70;;;;;;5042283;28;20072;-74
2021/06/21 01:36:58;;;;;;;;;;;24.00;96.70;;;;;;5036604;28;20413;-75
2021/06/21 01:39:30;;;;;;;10.38;2.50;;;23.90;96.70;;;;;;5033191;28;19929;-74
2021/06/21 01:42:06;;;;;;;8.77;2.65;;;23.90;96.70;;;;;;5041660;28;20119;-74
2021/06/21 01:44:40;;;;;;;5.88;2.40;;;23.80;96.70;;;;;;5040100;28;20044;-74
2021/06/21 01:47:10;;;;;;;6.18;2.20;;;23.90;96.70;;;;;;5043527;28;20098;-75
2021/06/21 01:49:44;;;;;;;5.97;2.40;;;23.80;96.70;;;;;;5037925;28;20045;-74
2021/06/21 01:52:14;;;;;;;6.78;2.40;;;23.60;96.70;;;;;;5038214;28;20059;-74
2021/06/21 01:54:48;;;;;;;7.35;2.10;;;23.70;96.70;;;;;;5035602;28;20045;-74
2021/06/21 01:57:22;;;;;;;5.10;2.55;;;23.80;96.70;;;;;;5040584;28;20144;-74
2021/06/21 01:59:52;;;;;;;9.32;2.25;;;23.80;96.70;;;;;;5037584;28;20089;-74
2021/06/21 02:02:23;;;;;;;7.03;2.30;;;23.80;96.70;;;;;;5039695;28;20690;-74
2021/06/21 02:04:57;;;;;;;4.57;2.22;;;23.70;96.70;;;;;;5039404;28;20052;-74
2021/06/21 02:07:28;;;;;;;7.15;2.35;;;23.70;96.70;;;;;;5044604;28;20030;-74
2021/06/21 02:09:58;;;;;;;4.82;2.10;;;23.70;96.70;;;;;;5043888;28;20040;-74
2021/06/21 02:12:28;;;;;;;5.28;2.33;;;23.80;96.70;;;;;;5051596;28;20224;-73
2021/06/21 02:14:59;;;;;;;4.95;2.55;;;23.60;96.70;;;;;;5047130;28;20049;-74
2021/06/21 02:17:30;;;;;;;5.78;2.67;;;23.60;96.70;;;;;;5042525;28;20547;-74
2021/06/21 02:20:02;;;;;;;8.63;2.92;;;23.50;96.70;;;;;;5047812;28;20060;-73
2021/06/21 02:22:32;;;;;;;9.68;2.25;;;23.50;96.70;;;;;;5043374;28;20458;-74
2021/06/21 02:25:03;;;;;;;6.57;2.70;;;23.50;96.70;;;;;;5046787;28;20548;-74
2021/06/21 02:27:33;;;;;;;10.57;2.42;;;23.50;96.70;;;;;;5041368;28;20119;-74
2021/06/21 02:30:06;;;;;;;7.65;2.30;;;23.50;96.70;;;;;;5046244;28;20042;-74
2021/06/21 02:32:37;;;;;;;6.28;2.30;;;23.40;96.70;;;;;;5044109;28;20052;-74
2021/06/21 02:35:11;;;;;;;6.25;2.33;;;23.40;96.70;;;;;;5044239;28;20055;-74
2021/06/21 02:37:41;;;;;;;12.25;2.92;;;23.40;96.70;;;;;;5045136;28;20380;-73
2021/06/21 02:40:13;;;;;;;4.18;2.22;;;23.20;96.70;;;;;;5046237;28;20041;-74
2021/06/21 02:42:43;;;;;;;5.50;2.03;;;23.10;96.70;;;;;;5040340;28;20037;-74
2021/06/21 02:45:14;;;;;;;7.38;2.67;;;23.00;96.70;;;;;;5046442;28;20443;-74
2021/06/21 02:47:45;;;;;;;10.20;2.72;;;23.00;96.70;;;;;;5038958;28;20576;-74
2021/06/21 02:50:17;;;;;;;5.20;2.47;;;23.00;96.70;;;;;;5024673;28;20845;-74
2021/06/21 02:52:59;;;;;;;5.93;2.20;;;23.10;96.70;;;;;;5041727;28;20048;-74
2021/06/21 02:55:36;;;;;;;7.60;2.95;;;23.10;96.70;;;;;;5037947;28;20047;-74
2021/06/21 02:58:13;;;;;;;6.40;2.67;;;23.00;96.70;;;;;;5043796;28;20048;-73
2021/06/21 03:00:42;;;;;;;;;;;22.90;96.70;;;;;;5043387;28;20045;-74
2021/06/21 03:03:12;;;;;;;9.07;3.00;;;22.90;96.70;;;;;;5036818;28;19976;-74
2021/06/21 03:05:48;;;;;;;6.53;2.58;;;22.70;96.70;;;;;;5037477;28;20064;-74
2021/06/21 03:08:18;;;;;;;7.90;2.92;;;22.70;96.70;;;;;;5042346;28;20045;-73
2021/06/21 03:10:49;;;;;;;7.55;3.03;;;22.80;96.70;;;;;;5026907;28;20140;-73
2021/06/21 03:13:20;;;;;;;7.57;2.85;;;22.90;96.70;;;;;;5041485;28;20044;-73
2021/06/21 03:15:51;;;;;;;8.55;3.10;;;22.90;96.70;;;;;;5046380;28;20044;-74
2021/06/21 03:18:21;;;;;;;10.43;2.70;;;22.90;96.70;;;;;;5037857;28;20071;-73
2021/06/21 03:20:55;;;;;;;6.80;2.40;;;22.90;96.70;;;;;;5039415;28;20037;-74
2021/06/21 03:23:26;;;;;;;4.80;2.10;;;23.00;96.70;;;;;;5041254;28;20076;-74
2021/06/21 03:25:58;;;;;;;4.03;2.50;;;23.00;96.70;;;;;;5039145;28;20040;-74
2021/06/21 03:28:29;;;;;;;6.35;2.65;;;22.90;96.70;;;;;;5043692;28;20040;-74
2021/06/21 03:31:03;;;;;;;8.32;3.15;;;23.00;96.70;;;;;;5043144;28;20052;-74
2021/06/21 03:33:34;;;;;;;8.43;2.58;;;22.90;96.70;;;;;;5044382;28;20048;-73
2021/06/21 03:36:07;;;;;;;7.55;3.03;;;22.90;96.70;;;;;;5042074;28;20458;-74
2021/06/21 03:38:38;;;;;;;8.10;2.85;;;22.90;96.70;;;;;;5053278;28;20052;-74
2021/06/21 03:41:08;;;;;;;8.55;3.03;;;22.90;96.70;;;;;;5038446;28;20061;-74
2021/06/21 03:43:39;;;;;;;7.07;3.22;;;22.90;96.70;;;;;;5041709;28;20142;-74
2021/06/21 03:46:09;;;;;;;8.70;3.20;;;22.90;96.70;;;;;;5043857;28;20040;-74
2021/06/21 03:48:39;;;;;;;7.45;2.88;;;22.90;96.70;;;;;;5040192;28;20453;-74
2021/06/21 03:51:11;;;;;;;8.88;2.90;;;23.00;96.70;;;;;;5047961;28;20037;-74
2021/06/21 03:53:41;;;;;;;6.03;2.65;;;23.00;96.70;;;;;;5041195;28;20407;-73
2021/06/21 03:56:11;;;;;;;5.72;2.50;;;22.90;96.70;;;;;;5042287;28;20127;-73
2021/06/21 03:58:41;;;;;;;7.55;3.13;;;22.80;96.70;;;;;;5042270;28;20087;-73
2021/06/21 04:01:11;;;;;;;6.03;2.72;;;22.90;96.70;;;;;;5054720;28;20050;-73
2021/06/21 04:03:41;;;;;;;6.22;2.92;;;23.00;96.70;;;;;;5036487;28;20061;-73
2021/06/21 04:06:13;;;;;;;8.93;3.20;;;23.00;96.70;;;;;;5040743;28;20040;-74
2021/06/21 04:08:42;;;;;;;10.88;3.35;;;23.00;96.70;;;;;;5054963;28;20052;-73
2021/06/21 04:11:11;;;;;;;8.50;2.95;;;22.90;96.70;;;;;;5044668;28;20037;-73
2021/06/21 04:13:40;;;;;;;7.22;2.67;;;22.80;96.70;;;;;;5049865;28;20153;-74
2021/06/21 04:16:11;;;;;;;7.15;2.97;;;22.90;96.70;;;;;;5045031;28;20252;-74
2021/06/21 04:18:41;;;;;;;6.10;2.47;;;23.00;96.70;;;;;;5039849;28;20489;-73
2021/06/21 04:21:12;;;;;;;6.10;2.63;;;22.90;96.70;;;;;;5042644;28;20716;-74
2021/06/21 04:23:42;;;;;;;6.68;3.40;;;22.90;96.70;;;;;;5045546;28;20069;-74
2021/06/21 04:26:12;;;;;;;6.88;3.20;;;22.90;96.70;;;;;;5040806;28;20931;-74
2021/06/21 04:28:42;;;;;;;5.50;3.53;;;23.00;96.70;;;;;;5038878;28;20711;-74
2021/06/21 04:31:12;;;;;;;9.20;3.38;;;23.00;96.70;;;;;;5040067;28;20501;-74
2021/06/21 04:33:42;;;;;;;5.28;3.00;;;23.00;96.70;;;;;;5043474;28;20053;-74
2021/06/21 04:36:15;;;;;;;8.38;2.97;;;23.10;96.70;;;;;;5029718;28;20506;-74
2021/06/21 04:38:45;;;;;;;4.32;2.90;;;23.10;96.70;;;;;;5040376;28;20324;-74
2021/06/21 04:41:15;;;;;;;3.88;2.70;;;23.10;96.70;;;;;;5038195;28;20359;-74
2021/06/21 04:43:44;;;;;;;9.65;2.78;;;23.20;96.70;;;;;;5037350;28;20047;-75
2021/06/21 04:46:14;;;;;;;8.35;3.08;;;23.10;96.70;;;;;;5041703;28;20094;-75
2021/06/21 04:48:48;;;;;;;10.90;3.50;;;23.00;96.70;;;;;;5037912;28;20041;-74
2021/06/21 04:51:21;;;;;;;8.25;2.70;;;23.10;96.70;;;;;;5036285;28;20132;-75
2021/06/21 04:53:51;;;;;;;9.70;3.47;;;23.00;96.70;;;;;;5041740;28;20390;-74
2021/06/21 04:56:21;;;;;;;13.82;3.38;;;23.20;96.70;;;;;;5034276;28;20055;-74
2021/06/21 04:58:51;;;;;;;11.48;3.10;;;23.30;96.70;;;;;;5039200;28;20052;-74
2021/06/21 05:01:21;;;;;;;8.25;2.72;;;23.40;96.70;;;;;;5040440;28;20499;-75
2021/06/21 05:03:51;;;;;;;9.65;3.08;;;23.40;96.70;;;;;;5034656;28;20037;-74
2021/06/21 05:06:23;;;;;;;10.00;3.30;;;23.50;96.70;;;;;;5039831;28;20209;-74
2021/06/21 05:08:53;;;;;;;8.23;2.88;;;23.50;96.70;;;;;;5046375;28;20110;-74
2021/06/21 05:11:23;;;;;;;8.80;3.45;;;23.40;96.70;;;;;;5041201;28;20041;-74
2021/06/21 05:13:52;;;;;;;9.13;3.25;;;23.40;96.70;;;;;;5027138;28;20447;-75
2021/06/21 05:16:22;;;;;;;8.55;3.42;;;23.40;96.70;;;;;;5041867;28;20051;-74
2021/06/21 05:18:52;;;;;;;10.07;3.50;;;23.50;96.70;;;;;;5039423;28;20033;-75
2021/06/21 05:21:24;;;;;;;9.20;3.30;;;23.50;96.70;;;;;;5035938;28;20041;-75
2021/06/21 05:23:54;;;;;;;5.32;3.38;;;23.50;96.70;;;;;;5038436;28;20041;-74
2021/06/21 05:26:24;;;;;;;8.25;3.22;;;23.60;96.70;;;;;;5041840;28;20037;-75
2021/06/21 05:28:54;;;;;;;10.48;3.95;;;23.70;96.70;;;;;;5041986;28;20064;-74
2021/06/21 05:31:25;;;;;;;10.98;3.75;;;23.60;96.70;;;;;;5038241;28;20061;-74
2021/06/21 05:33:55;;;;;;;13.93;4.15;;;23.60;96.70;;;;;;5032803;28;20048;-75
2021/06/21 05:36:27;;;;;;;10.50;3.83;;;23.60;96.70;;;;;;5041271;28;20071;-74
2021/06/21 05:38:57;;;;;;;10.15;3.90;;;23.50;96.70;;;;;;5039551;28;20037;-75
2021/06/21 05:41:26;;;;;;;9.43;4.15;;;23.40;96.70;;;;;;5035892;28;20049;-75
2021/06/21 05:43:56;;;;;;;19.45;4.80;;;23.50;96.70;;;;;;5035791;28;20131;-74
2021/06/21 05:46:26;;;;;;;18.25;4.82;;;23.60;96.70;;;;;;5054140;28;20136;-74
2021/06/21 05:48:56;;;;;;;19.17;4.88;;;23.50;96.70;;;;;;5037245;28;20514;-75
2021/06/21 05:51:28;;;;;;;16.00;4.65;;;23.70;96.70;;;;;;5035723;28;20059;-75
2021/06/21 05:53:58;;;;;;;13.10;4.97;;;23.80;96.70;;;;;;5043853;28;20075;-74
2021/06/21 05:56:27;;;;;;;9.57;4.18;;;23.90;96.70;;;;;;5037880;28;20449;-75
2021/06/21 05:58:56;;;;;;;13.50;4.47;;;23.90;96.70;;;;;;5028570;28;20123;-75
2021/06/21 06:01:25;;;;;;;12.98;5.07;;;24.00;96.70;;;;;;4999621;28;20326;-75
2021/06/21 06:03:53;;;;;;;15.25;4.57;;;24.10;96.70;;;;;;4998403;28;20054;-74
2021/06/21 06:06:22;;;;;;;11.85;4.30;;;24.10;96.70;;;;;;5000468;28;20052;-75
2021/06/21 06:08:51;;;;;;;9.98;5.15;;;24.20;96.70;;;;;;4994799;28;20466;-75
2021/06/21 06:11:20;;;;;;;13.15;4.88;;;24.30;96.70;;;;;;4999774;28;20042;-75
2021/06/21 06:13:48;;;;;;;14.23;5.25;;;24.30;96.70;;;;;;5000379;28;20038;-74
2021/06/21 06:16:17;;;;;;;16.63;6.63;;;24.30;96.70;;;;;;4996588;28;20053;-75
2021/06/21 06:18:45;;;;;;;11.75;6.22;;;24.40;96.70;;;;;;5000469;28;20049;-75
2021/06/21 06:21:16;;;;;;;16.60;6.38;;;24.30;96.70;;;;;;4999319;28;20038;-75
2021/06/21 06:23:45;;;;;;;16.55;6.15;;;24.20;96.70;;;;;;4996224;28;20050;-75
2021/06/21 06:26:14;;;;;;;13.52;5.45;;;24.30;96.70;;;;;;4982061;28;20441;-74
2021/06/21 06:28:43;;;;;;;11.70;5.93;;;24.50;96.70;;;;;;4999907;28;20042;-74
2021/06/21 06:31:12;;;;;;;11.27;6.28;;;24.60;96.70;;;;;;4998313;28;20031;-75
2021/06/21 06:33:41;;;;;;;13.55;5.60;;;24.70;96.70;;;;;;4998141;28;20038;-75
2021/06/21 06:36:09;;;;;;;12.52;4.95;;;24.70;96.70;;;;;;5000064;28;20073;-75
2021/06/21 06:38:38;;;;;;;13.90;5.13;;;24.80;96.70;;;;;;4997534;28;20065;-74
2021/06/21 06:41:06;;;;;;;11.60;4.97;;;24.80;96.70;;;;;;5000795;28;20048;-75
2021/06/21 06:43:36;;;;;;;12.05;4.43;;;24.80;96.70;;;;;;4997567;28;20133;-75
2021/06/21 06:46:04;;;;;;;8.07;3.67;;;24.80;96.70;;;;;;4999352;28;20495;-74
2021/06/21 06:48:32;;;;;;;9.38;3.85;;;24.90;96.70;;;;;;5002079;28;20054;-75
2021/06/21 06:51:01;;;;;;;9.05;4.05;;;25.00;96.70;;;;;;4998051;28;20054;-75
2021/06/21 06:53:54;;;;;;;12.75;4.63;;;25.00;96.70;;;;;;5000417;28;20050;-75
2021/06/21 06:59:05;;;;;;;5.35;2.50;;;25.00;96.70;;;;;;5002539;28;20108;-74
2021/06/21 07:01:33;;;;;;;10.65;3.88;;;25.10;96.70;;;;;;5041355;28;20045;-77
2021/06/21 07:04:03;;;;;;;9.77;3.25;;;25.10;96.70;;;;;;5043770;28;20049;-76
2021/06/21 07:06:32;;;;;;;10.10;2.78;;;25.20;96.70;;;;;;5038732;28;20090;-74
2021/06/21 07:09:01;;;;;;;15.13;3.03;;;25.30;96.70;;;;;;5042501;28;20037;-74
2021/06/21 07:11:29;;;;;;;7.57;3.35;;;25.40;96.70;;;;;;5043054;28;20065;-74
2021/06/21 07:13:57;;;;;;;11.52;2.88;;;25.40;96.70;;;;;;5039819;28;20030;-75
2021/06/21 07:16:27;;;;;;;10.35;3.20;;;25.50;96.70;;;;;;5036021;28;20060;-74
2021/06/21 07:18:55;;;;;;;7.13;3.05;;;25.50;96.70;;;;;;5034365;28;20523;-74
2021/06/21 07:21:24;;;;;;;12.65;3.20;;;25.60;96.30;;;;;;5037266;28;20036;-74
2021/06/21 07:23:52;;;;;;;5.72;2.65;;;25.60;96.50;;;;;;5043001;28;20047;-73
2021/06/21 07:26:20;;;;;;;6.72;3.08;;;25.70;96.30;;;;;;5021386;28;20445;-73
2021/06/21 07:28:49;;;;;;;12.02;3.05;;;25.60;96.10;;;;;;5037780;28;20039;-73
2021/06/21 07:31:18;;;;;;;11.07;3.40;;;25.60;96.40;;;;;;5039819;28;20453;-73
2021/06/21 07:33:47;;;;;;;11.90;3.28;;;25.60;96.70;;;;;;5034487;28;20057;-72
2021/06/21 07:36:16;;;;;;;10.30;2.50;;;25.80;96.70;;;;;;5036850;28;20072;-73
2021/06/21 07:38:44;;;;;;;12.70;3.08;;;25.90;96.70;;;;;;5044261;28;20493;-73
2021/06/21 07:41:13;;;;;;;7.35;2.97;;;26.00;96.70;;;;;;5041084;28;20041;-73
2021/06/21 07:43:41;;;;;;;9.20;2.75;;;26.00;96.70;;;;;;5037640;28;20041;-73
2021/06/21 07:46:10;;;;;;;12.55;3.10;;;26.00;96.70;;;;;;5041855;28;20038;-74
2021/06/21 07:48:42;;;;;;;12.52;3.17;;;26.00;96.70;;;;;;5041272;28;20541;-73
2021/06/21 07:51:15;;;;;;;10.98;3.13;;;26.10;96.70;;;;;;5038394;28;20065;-74
2021/06/21 07:53:45;;;;;;;13.32;3.63;;;26.10;96.70;;;;;;5039904;28;20072;-73
2021/06/21 07:56:15;;;;;;;9.07;3.03;;;26.10;96.70;;;;;;5040662;28;20057;-73
2021/06/21 07:58:44;;;;;;;9.32;3.30;;;26.20;96.70;;;;;;5025980;28;20045;-74
2021/06/21 08:01:12;;;;;;;7.05;2.90;;;26.30;96.70;;;;;;5041112;28;20061;-73
2021/06/21 08:03:41;;;;;;;13.52;3.75;;;26.50;96.70;;;;;;5044236;28;20494;-74
2021/06/21 08:06:12;;;;;;;13.20;3.42;;;26.50;96.70;;;;;;5026912;28;20044;-73
2021/06/21 08:08:43;;;;;;;14.45;3.50;;;26.40;96.70;;;;;;5039862;28;20044;-74
2021/06/21 08:11:12;;;;;;;11.27;3.20;;;26.40;96.70;;;;;;5042083;28;20109;-73
2021/06/21 08:13:40;;;;;;;14.73;3.53;;;26.40;96.70;;;;;;5050845;28;20048;-73
2021/06/21 08:16:09;;;;;;;9.25;3.28;;;26.50;96.70;;;;;;5041763;28;20083;-73
2021/06/21 08:18:37;;;;;;;13.50;3.92;;;26.50;96.70;;;;;;5043130;28;20044;-73
2021/06/21 08:21:06;;;;;;;12.38;3.60;;;26.60;96.70;;;;;;5040280;28;20033;-73
2021/06/21 08:23:36;;;;;;;10.88;3.35;;;26.80;96.70;;;;;;5040353;28;20056;-73
2021/06/21 08:26:04;;;;;;;11.27;4.10;;;26.90;96.70;;;;;;5043200;28;20033;-73
2021/06/21 08:28:32;;;;;;;13.45;3.55;;;26.90;96.70;;;;;;5043307;28;20479;-73
2021/06/21 08:31:00;;;;;;;9.43;3.90;;;27.10;96.70;;;;;;5043290;28;20048;-73
2021/06/21 08:33:29;;;;;;;15.23;4.05;;;27.20;96.70;;;;;;5033564;28;20407;-73
2021/06/21 08:35:57;;;;;;;12.07;3.80;;;27.10;96.70;;;;;;5041891;28;20048;-73
2021/06/21 08:38:25;;;;;;;10.93;3.65;;;27.20;96.70;;;;;;5037898;28;20120;-73
2021/06/21 08:40:55;;;;;;;14.32;4.07;;;27.30;96.70;;;;;;5041908;28;20124;-74
2021/06/21 08:43:24;;;;;;;13.15;4.30;;;27.40;96.70;;;;;;5035978;28;20037;-74
2021/06/21 08:45:53;;;;;;;13.77;4.65;;;27.40;96.70;;;;;;5037418;28;20045;-74
2021/06/21 08:48:22;;;;;;;14.20;4.55;;;27.40;96.70;;;;;;5039253;28;20029;-74
2021/06/21 08:50:50;;;;;;;16.55;4.47;;;27.40;96.70;;;;;;5053151;28;20037;-73
2021/06/21 08:53:18;;;;;;;15.30;4.15;;;27.50;96.70;;;;;;5039134;28;20505;-74
2021/06/21 08:55:49;;;;;;;11.25;5.50;;;27.60;96.70;;;;;;5042406;28;20041;-74
2021/06/21 08:58:19;;;;;;;15.02;4.82;;;27.70;96.70;;;;;;5041464;28;20037;-74
2021/06/21 09:00:47;;;;;;;13.60;4.25;;;27.70;96.70;;;;;;5022722;28;20096;-74
2021/06/21 09:03:16;;;;;;;17.05;5.35;;;27.80;96.70;;;;;;5036676;28;20120;-73
2021/06/21 09:05:45;;;;;;;15.68;4.55;;;27.80;96.70;;;;;;5038129;28;20568;-73
2021/06/21 09:08:13;;;;;;;14.35;4.65;;;27.70;96.70;;;;;;5043717;28;20056;-74
2021/06/21 09:10:41;;;;;;;16.48;4.20;;;27.80;96.70;;;;;;5035164;28;20076;-73
2021/06/21 09:13:12;;;;;;;18.85;4.47;;;27.90;96.70;;;;;;5040566;28;20037;-73
2021/06/21 09:15:44;;;;;;;14.52;4.18;;;28.00;96.70;;;;;;5058016;28;20116;-73
2021/06/21 09:18:26;;;;;;;14.40;4.70;;;28.00;96.70;;;;;;5039905;28;20044;-73
2021/06/21 09:21:21;;;;;;;13.85;4.65;;;28.00;96.20;;;;;;5036778;28;20047;-72
2021/06/21 09:24:16;;;;;;;11.75;4.97;;;28.00;96.40;;;;;;5062771;28;20049;-73
2021/06/21 09:26:46;;;;;;;19.13;4.78;;;28.00;95.80;;;;;;5059289;28;20406;-72
2021/06/21 09:29:15;;;;;;;14.10;4.70;;;28.20;95.60;;;;;;5040680;28;20047;-73
2021/06/21 09:31:52;;;;;;;16.52;5.22;;;28.30;95.70;;;;;;5044761;28;20040;-73
2021/06/21 09:34:22;;;;;;;14.10;4.53;;;28.40;95.40;;;;;;5038959;28;20064;-73
2021/06/21 09:36:51;;;;;;;12.90;5.00;;;28.40;95.40;;;;;;5038640;28;20048;-73
2021/06/21 09:39:24;;;;;;;13.43;4.38;;;28.50;95.60;;;;;;5035001;28;20418;-73
2021/06/21 09:42:13;;;;;;;15.75;4.70;;;28.70;94.90;;;;;;5040608;28;20057;-73
2021/06/21 09:44:45;;;;;;;16.20;4.90;;;28.90;95.10;;;;;;5037757;28;20162;-72
2021/06/21 09:47:17;;;;;;;15.68;4.53;;;28.90;94.40;;;;;;5038430;28;20045;-73
2021/06/21 09:50:07;;;;;;;18.88;5.15;;;28.90;93.20;;;;;;5041960;28;20045;-73
2021/06/21 09:52:38;;;;;;;16.30;4.43;;;28.80;94.10;;;;;;5042138;28;20053;-73
2021/06/21 09:55:25;;;;;;;16.48;4.32;;;28.80;95.10;;;;;;5043367;28;20036;-73
2021/06/21 09:58:07;;;;;;;14.10;4.35;;;28.90;94.50;;;;;;5039759;28;20554;-73
2021/06/21 10:00:38;;;;;;;14.00;4.82;;;29.10;94.70;;;;;;5037379;28;20144;-72
2021/06/21 10:03:14;;;;;;;14.02;4.88;;;29.10;94.00;;;;;;5037116;28;20095;-73
2021/06/21 10:05:44;;;;;;;15.23;5.10;;;29.10;94.10;;;;;;5036468;28;20048;-73
2021/06/21 10:08:14;;;;;;;18.00;4.88;;;29.10;93.40;;;;;;5040812;28;20048;-73
2021/06/21 10:10:43;;;;;;;14.68;5.03;;;29.10;93.90;;;;;;5039978;28;20040;-72
2021/06/21 10:13:13;;;;;;;12.30;4.38;;;29.10;93.80;;;;;;5030449;28;20855;-72
2021/06/21 10:15:41;;;;;;;17.15;4.93;;;29.10;93.60;;;;;;5043493;28;20037;-72
2021/06/21 10:18:11;;;;;;;12.60;4.63;;;29.20;93.40;;;;;;5036779;28;20044;-73
2021/06/21 10:20:40;;;;;;;13.70;4.85;;;29.30;92.90;;;;;;5037462;28;20047;-73
2021/06/21 10:23:09;;;;;;;17.35;5.32;;;29.50;92.50;;;;;;5039869;28;20541;-72
2021/06/21 10:25:37;;;;;;;21.10;5.40;;;29.70;93.00;;;;;;5037951;28;20068;-73
2021/06/21 10:28:06;;;;;;;18.48;5.47;;;29.90;92.40;;;;;;5045847;28;20079;-72
2021/06/21 10:30:35;;;;;;;16.52;4.97;;;30.10;91.50;;;;;;5036422;28;20042;-72
2021/06/21 10:33:03;;;;;;;17.30;5.63;;;30.20;91.00;;;;;;5043216;28;20467;-73
2021/06/21 10:35:33;;;;;;;19.15;5.82;;;30.40;90.20;;;;;;5041786;28;20041;-73
2021/06/21 10:38:05;;;;;;;15.30;5.07;;;30.30;91.10;;;;;;5043759;28;20052;-73
2021/06/21 10:40:53;;;;;;;18.80;5.40;;;30.30;90.80;;;;;;5043873;28;20124;-73
2021/06/21 10:43:50;;;;;;;17.45;5.80;;;30.20;91.00;;;;;;5043957;28;20037;-73
2021/06/21 10:46:24;;;;;;;21.98;4.90;;;30.20;90.70;;;;;;5044173;28;20056;-73
2021/06/21 10:49:26;;;;;;;17.40;4.85;;;30.50;91.00;;;;;;5041713;28;20410;-72
2021/06/21 10:51:55;;;;;;;17.65;4.63;;;30.70;89.80;;;;;;5039717;28;20056;-73
2021/06/21 10:54:26;;;;;;;17.70;5.20;;;30.70;89.20;;;;;;5038937;28;20041;-74
2021/06/21 10:56:56;;;;;;;18.98;5.00;;;30.60;90.00;;;;;;5039860;28;20045;-74
2021/06/21 10:59:25;;;;;;;23.70;5.55;;;30.70;90.10;;;;;;5042820;28;20048;-74
2021/06/21 11:01:55;;;;;;;17.92;5.25;;;30.70;88.70;;;;;;5039348;28;20349;-74
2021/06/21 11:04:46;;;;;;;18.40;5.40;;;30.80;89.00;;;;;;5043838;28;20076;-74
2021/06/21 11:07:19;;;;;;;18.92;5.18;;;30.70;90.20;;;;;;5040234;28;20075;-74
2021/06/21 11:09:48;;;;;;;17.58;4.68;;;30.60;89.70;;;;;;5045659;28;20049;-74
2021/06/21 11:12:35;;;;;;;17.60;4.55;;;30.40;89.70;;;;;;5038852;28;20063;-73
2021/06/21 11:15:15;;;;;;;21.67;4.85;;;30.60;90.00;;;;;;5039652;28;20072;-74
2021/06/21 11:17:58;;;;;;;19.70;5.00;;;30.90;89.30;;;;;;5036624;28;20230;-74
2021/06/21 11:20:34;;;;;;;16.20;4.80;;;31.00;88.60;;;;;;5036479;28;20036;-74
2021/06/21 11:23:06;;;;;;;24.45;5.68;;;31.00;88.50;;;;;;5053051;28;20655;-74
2021/06/21 11:25:39;;;;;;;22.77;5.40;;;31.00;87.80;;;;;;5042530;28;20060;-74
2021/06/21 11:28:34;;;;;;;18.75;5.03;;;30.90;88.00;;;;;;5039786;28;20099;-74
2021/06/21 11:31:21;;;;;;;18.58;4.50;;;31.10;87.50;;;;;;5038068;28;20574;-74
2021/06/21 11:33:52;;;;;;;22.60;5.18;;;31.30;87.60;;;;;;5043071;28;20495;-73
2021/06/21 11:36:38;;;;;;;17.75;4.55;;;31.60;87.00;;;;;;5040194;28;20503;-74
2021/06/21 11:39:22;;;;;;;19.13;5.17;;;31.60;87.20;;;;;;5054392;28;20491;-73
2021/06/21 11:41:53;;;;;;;21.40;5.53;;;31.70;86.70;;;;;;5037167;28;20045;-74
2021/06/21 11:44:45;;;;;;;15.80;5.10;;;31.80;86.50;;;;;;5038904;28;20079;-73
2021/06/21 11:47:22;;;;;;;23.23;5.93;;;31.70;85.70;;;;;;5035803;28;20160;-74
2021/06/21 11:49:52;;;;;;;19.58;5.38;;;31.90;85.80;;;;;;5040693;28;20116;-73
2021/06/21 11:52:23;;;;;;;20.65;4.38;;;31.80;86.20;;;;;;5047911;28;20095;-74
2021/06/21 11:54:54;;;;;;;25.17;5.57;;;31.90;86.10;;;;;;5042781;28;20097;-73
2021/06/21 11:57:25;;;;;;;22.98;6.05;;;32.10;85.50;;;;;;5040096;28;20128;-73
2021/06/21 11:59:54;;;;;;;18.35;4.93;;;32.30;85.10;;;;;;5041275;28;20088;-74
2021/06/21 12:02:24;;;;;;;18.75;5.38;;;32.40;84.60;;;;;;5040355;28;20041;-74
2021/06/21 12:04:54;;;;;;;26.88;5.07;;;32.60;84.40;;;;;;5040351;28;20045;-74
2021/06/21 12:07:29;;;;;;;21.15;5.22;;;32.50;84.40;;;;;;5038130;28;20045;-74
2021/06/21 12:10:03;;;;;;;16.30;4.88;;;32.30;85.20;;;;;;5035194;28;20040;-74
2021/06/21 12:12:33;;;;;;;18.10;5.10;;;32.30;85.00;;;;;;5040522;28;20041;-74
2021/06/21 12:15:04;;;;;;;20.08;5.28;;;32.40;85.20;;;;;;5039350;28;20037;-75
2021/06/21 12:17:33;;;;;;;16.90;4.72;;;32.20;85.10;;;;;;5045142;28;20409;-74
2021/06/21 12:20:06;;;;;;;22.65;5.95;;;32.20;84.80;;;;;;5046937;28;20028;-74
2021/06/21 12:22:35;;;;;;;22.73;5.50;;;32.40;85.10;;;;;;5040786;28;20068;-74
2021/06/21 12:25:06;;;;;;;23.13;5.57;;;32.70;84.90;;;;;;5040514;28;20029;-74
2021/06/21 12:27:36;;;;;;;17.35;4.70;;;32.70;83.70;;;;;;5041315;28;20049;-74
2021/06/21 12:30:06;;;;;;;20.92;4.75;;;32.60;84.20;;;;;;5040655;28;20588;-74
2021/06/21 12:32:34;;;;;;;25.52;5.53;;;32.60;83.70;;;;;;5041354;28;20049;-74
2021/06/21 12:35:04;;;;;;;19.52;5.10;;;32.70;83.80;;;;;;5042236;28;20045;-75
2021/06/21 12:37:34;;;;;;;17.77;5.10;;;32.70;83.50;;;;;;5033426;28;20103;-74
2021/06/21 12:40:12;;;;;;;20.00;5.80;;;32.50;84.00;;;;;;5038420;28;20037;-74
2021/06/21 12:42:41;;;;;;;17.17;4.50;;;32.60;84.60;;;;;;5037608;28;20075;-74
2021/06/21 12:45:11;;;;;;;17.75;4.30;;;32.50;84.50;;;;;;5038541;28;20602;-74
2021/06/21 12:47:44;;;;;;;20.75;5.72;;;32.30;84.70;;;;;;5040916;28;20039;-73
2021/06/21 12:50:14;;;;;;;22.08;5.30;;;32.10;84.70;;;;;;5042574;28;20167;-74
2021/06/21 12:52:44;;;;;;;18.60;5.25;;;32.00;85.40;;;;;;5057268;28;20055;-74
2021/06/21 12:55:21;;;;;;;21.77;5.30;;;31.90;85.60;;;;;;5037192;28;20048;-74
2021/06/21 12:57:52;;;;;;;23.80;5.35;;;31.80;85.50;;;;;;5055984;28;20044;-74
2021/06/21 13:00:37;;;;;;;18.73;4.72;;;32.20;85.40;;;;;;5041711;28;20052;-74
2021/06/21 13:03:10;;;;;;;21.58;4.85;;;32.50;84.50;;;;;;5038384;28;20166;-74
2021/06/21 13:05:43;;;;;;;25.25;6.15;;;32.50;85.00;;;;;;5039798;28;20498;-74
2021/06/21 13:08:12;;;;;;;22.38;5.40;;;32.50;85.90;;;;;;5040176;28;20405;-75